Time,TemperatureF,DewpointF,PressureIn,WindDirection,WindDirectionDegrees,WindSpeedMPH,WindSpeedGustMPH,Humidity,HourlyPrecipIn,Conditions,Clouds,dailyrainin,SolarRadiationWatts/m^2,SoftwareType,DateUTC
2013-12-07 00:00:00,21.0,13.0,-100.00,NNW,337,6.0,-999.0,70,-99.99,,,-99.99,0.000000,,2013-12-07 05:00:00,
2013-12-07 00:43:00,21.0,13.0,-100.00,NNW,337,6.0,-999.0,70,-99.99,,,-99.99,0.000000,,2013-12-07 05:43:00,
2013-12-07 00:53:00,21.0,13.0,-100.00,NNW,337,6.0,-999.0,70,-99.99,,,-99.99,0.000000,,2013-12-07 05:53:00,
2013-12-07 01:00:00,21.0,12.0,-100.00,NW,315,6.0,-999.0,67,-99.99,,,-99.99,0.000000,,2013-12-07 06:00:00,
2013-12-07 01:43:00,21.0,12.0,-100.00,NW,315,6.0,-999.0,67,-99.99,,,-99.99,0.000000,,2013-12-07 06:43:00,
2013-12-07 01:53:00,21.0,12.0,-100.00,NW,315,6.0,-999.0,67,-99.99,,,-99.99,0.000000,,2013-12-07 06:53:00,
2013-12-07 02:00:00,21.0,11.0,-100.00,NW,315,8.0,-999.0,64,-99.99,,,-99.99,0.000000,,2013-12-07 07:00:00,
2013-12-07 02:42:00,21.0,11.0,-100.00,NW,315,8.0,-999.0,64,-99.99,,,-99.99,0.000000,,2013-12-07 07:42:00,
2013-12-07 02:53:00,21.0,11.0,-100.00,NW,315,8.0,-999.0,64,-99.99,,,-99.99,0.000000,,2013-12-07 07:53:00,
2013-12-07 03:00:00,17.0,10.0,-100.00,NW,315,4.0,-999.0,70,-99.99,,,-99.99,0.000000,,2013-12-07 08:00:00,
2013-12-07 03:42:00,17.0,10.0,-100.00,NW,315,4.0,-999.0,70,-99.99,,,-99.99,0.000000,,2013-12-07 08:42:00,
2013-12-07 03:52:00,17.0,10.0,-100.00,NW,315,4.0,-999.0,70,-99.99,,,-99.99,0.000000,,2013-12-07 08:52:00,
2013-12-07 04:00:00,16.0,9.0,-100.00,NW,315,3.0,-999.0,72,-99.99,,,-99.99,0.000000,,2013-12-07 09:00:00,
2013-12-07 04:44:00,16.0,9.0,-100.00,NW,315,3.0,-999.0,72,-99.99,,,-99.99,0.000000,,2013-12-07 09:44:00,
2013-12-07 04:53:00,16.0,9.0,-100.00,NW,315,3.0,-999.0,72,-99.99,,,-99.99,0.000000,,2013-12-07 09:53:00,
2013-12-07 05:00:00,16.0,9.0,-100.00,West,270,0.0,-999.0,73,-99.99,,,-99.99,0.000000,,2013-12-07 10:00:00,
2013-12-07 05:43:00,16.0,9.0,-100.00,West,270,0.0,-999.0,73,-99.99,,,-99.99,0.000000,,2013-12-07 10:43:00,
2013-12-07 05:53:00,16.0,9.0,-100.00,West,270,0.0,-999.0,73,-99.99,,,-99.99,0.000000,,2013-12-07 10:53:00,
2013-12-07 06:00:00,16.0,9.0,-100.00,West,270,0.0,-999.0,75,-99.99,,,-99.99,0.000000,,2013-12-07 11:00:00,
2013-12-07 06:42:00,16.0,9.0,-100.00,West,270,0.0,-999.0,75,-99.99,,,-99.99,0.000000,,2013-12-07 11:42:00,
2013-12-07 06:52:00,16.0,9.0,-100.00,West,270,0.0,-999.0,75,-99.99,,,-99.99,0.000000,,2013-12-07 11:52:00,
2013-12-07 07:00:00,14.0,9.0,-100.00,WSW,247,0.0,-999.0,79,-99.99,,,-99.99,0.000000,,2013-12-07 12:00:00,
2013-12-07 07:43:00,14.0,9.0,-100.00,WSW,247,0.0,-999.0,79,-99.99,,,-99.99,0.000000,,2013-12-07 12:43:00,
2013-12-07 07:52:00,14.0,9.0,-100.00,WSW,247,0.0,-999.0,79,-99.99,,,-99.99,0.000000,,2013-12-07 12:52:00,
2013-12-07 08:00:00,14.0,10.0,-100.00,WSW,247,0.0,-999.0,82,-99.99,,,-99.99,1.160000,,2013-12-07 13:00:00,
2013-12-07 08:42:00,14.0,10.0,-100.00,WSW,247,0.0,-999.0,82,-99.99,,,-99.99,1.160000,,2013-12-07 13:42:00,
2013-12-07 08:52:00,14.0,10.0,-100.00,WSW,247,0.0,-999.0,82,-99.99,,,-99.99,1.160000,,2013-12-07 13:52:00,
2013-12-07 09:00:00,18.0,13.0,-100.00,SW,225,2.0,-999.0,81,-99.99,,,-99.99,37.119999,,2013-12-07 14:00:00,
2013-12-07 09:42:00,18.0,13.0,-100.00,SW,225,2.0,-999.0,81,-99.99,,,-99.99,37.119999,,2013-12-07 14:42:00,
2013-12-07 09:52:00,18.0,13.0,-100.00,SW,225,2.0,-999.0,81,-99.99,,,-99.99,37.119999,,2013-12-07 14:52:00,
2013-12-07 10:00:00,21.0,13.0,-100.00,NW,315,8.0,-999.0,70,-99.99,,,-99.99,223.880005,,2013-12-07 15:00:00,
2013-12-07 10:43:00,21.0,13.0,-100.00,NW,315,8.0,-999.0,70,-99.99,,,-99.99,223.880005,,2013-12-07 15:43:00,
2013-12-07 10:54:00,21.0,13.0,-100.00,NW,315,8.0,-999.0,70,-99.99,,,-99.99,223.880005,,2013-12-07 15:54:00,
2013-12-07 11:00:00,23.0,11.0,-100.00,NW,315,10.0,-999.0,59,-99.99,,,-99.99,295.799988,,2013-12-07 16:00:00,
2013-12-07 11:43:00,23.0,11.0,-100.00,NW,315,10.0,-999.0,59,-99.99,,,-99.99,295.799988,,2013-12-07 16:43:00,
2013-12-07 11:53:00,23.0,11.0,-100.00,NW,315,10.0,-999.0,59,-99.99,,,-99.99,295.799988,,2013-12-07 16:53:00,
2013-12-07 12:00:00,23.0,9.0,-100.00,NW,315,9.0,-999.0,54,-99.99,,,-99.99,335.239990,,2013-12-07 17:00:00,
2013-12-07 12:43:00,23.0,9.0,-100.00,NW,315,9.0,-999.0,54,-99.99,,,-99.99,335.239990,,2013-12-07 17:43:00,
2013-12-07 12:52:00,23.0,9.0,-100.00,NW,315,9.0,-999.0,54,-99.99,,,-99.99,335.239990,,2013-12-07 17:52:00,
2013-12-07 13:00:00,25.0,9.0,-100.00,NW,315,8.0,-999.0,48,-99.99,,,-99.99,430.359985,,2013-12-07 18:00:00,
2013-12-07 13:43:00,25.0,9.0,-100.00,NW,315,8.0,-999.0,48,-99.99,,,-99.99,430.359985,,2013-12-07 18:43:00,
2013-12-07 13:52:00,25.0,9.0,-100.00,NW,315,8.0,-999.0,48,-99.99,,,-99.99,430.359985,,2013-12-07 18:52:00,
2013-12-07 14:00:00,26.0,9.0,-100.00,WNW,292,9.0,-999.0,47,-99.99,,,-99.99,410.640015,,2013-12-07 19:00:00,
2013-12-07 14:42:00,26.0,9.0,-100.00,WNW,292,9.0,-999.0,47,-99.99,,,-99.99,410.640015,,2013-12-07 19:42:00,
2013-12-07 14:52:00,26.0,9.0,-100.00,WNW,292,9.0,-999.0,47,-99.99,,,-99.99,410.640015,,2013-12-07 19:52:00,
2013-12-07 15:00:00,26.0,8.0,-100.00,WNW,292,7.0,-999.0,45,-99.99,,,-99.99,303.920013,,2013-12-07 20:00:00,
2013-12-07 15:42:00,26.0,8.0,-100.00,WNW,292,7.0,-999.0,45,-99.99,,,-99.99,303.920013,,2013-12-07 20:42:00,
2013-12-07 15:53:00,26.0,8.0,-100.00,WNW,292,7.0,-999.0,45,-99.99,,,-99.99,303.920013,,2013-12-07 20:53:00,
2013-12-07 16:00:00,26.0,8.0,-100.00,NW,315,7.0,-999.0,45,-99.99,,,-99.99,199.520004,,2013-12-07 21:00:00,
2013-12-07 16:43:00,26.0,8.0,-100.00,NW,315,7.0,-999.0,45,-99.99,,,-99.99,199.520004,,2013-12-07 21:43:00,
2013-12-07 16:54:00,26.0,8.0,-100.00,NW,315,7.0,-999.0,45,-99.99,,,-99.99,199.520004,,2013-12-07 21:54:00,
2013-12-07 17:00:00,24.0,8.0,-100.00,NW,315,6.0,-999.0,50,-99.99,,,-99.99,62.639999,,2013-12-07 22:00:00,
2013-12-07 17:43:00,24.0,8.0,-100.00,NW,315,6.0,-999.0,50,-99.99,,,-99.99,62.639999,,2013-12-07 22:43:00,
2013-12-07 17:53:00,24.0,8.0,-100.00,NW,315,6.0,-999.0,50,-99.99,,,-99.99,62.639999,,2013-12-07 22:53:00,
2013-12-07 18:00:00,18.0,8.0,-100.00,NW,315,1.0,-999.0,64,-99.99,,,-99.99,0.000000,,2013-12-07 23:00:00,
2013-12-07 18:43:00,18.0,8.0,-100.00,NW,315,1.0,-999.0,64,-99.99,,,-99.99,0.000000,,2013-12-07 23:43:00,
2013-12-07 18:52:00,18.0,8.0,-100.00,NW,315,1.0,-999.0,64,-99.99,,,-99.99,0.000000,,2013-12-07 23:52:00,
2013-12-07 19:00:00,18.0,9.0,-100.00,WNW,292,1.0,-999.0,67,-99.99,,,-99.99,0.000000,,2013-12-08 00:00:00,
2013-12-07 19:42:00,18.0,9.0,-100.00,WNW,292,1.0,-999.0,67,-99.99,,,-99.99,0.000000,,2013-12-08 00:42:00,
2013-12-07 19:52:00,18.0,9.0,-100.00,WNW,292,1.0,-999.0,67,-99.99,,,-99.99,0.000000,,2013-12-08 00:52:00,
2013-12-07 20:00:00,15.0,8.0,-100.00,NW,315,2.0,-999.0,73,-99.99,,,-99.99,0.000000,,2013-12-08 01:00:00,
2013-12-07 20:42:00,15.0,8.0,-100.00,NW,315,2.0,-999.0,73,-99.99,,,-99.99,0.000000,,2013-12-08 01:42:00,
2013-12-07 20:52:00,15.0,8.0,-100.00,NW,315,2.0,-999.0,73,-99.99,,,-99.99,0.000000,,2013-12-08 01:52:00,
2013-12-07 21:00:00,14.0,8.0,-100.00,NW,315,1.0,-999.0,77,-99.99,,,-99.99,0.000000,,2013-12-08 02:00:00,
2013-12-07 21:43:00,14.0,8.0,-100.00,NW,315,1.0,-999.0,77,-99.99,,,-99.99,0.000000,,2013-12-08 02:43:00,
2013-12-07 21:52:00,14.0,8.0,-100.00,NW,315,1.0,-999.0,77,-99.99,,,-99.99,0.000000,,2013-12-08 02:52:00,
2013-12-07 22:00:00,-999.0,-99.9,-100.00,WNW,292,0.0,-999.0,-999,-99.99,,,-99.99,,,2013-12-08 03:00:00,
2013-12-07 22:44:00,14.0,8.0,-100.00,WNW,292,0.0,-999.0,77,-99.99,,,-99.99,0.000000,,2013-12-08 03:44:00,
2013-12-07 22:54:00,14.0,8.0,-100.00,WNW,292,0.0,-999.0,77,-99.99,,,-99.99,0.000000,,2013-12-08 03:54:00,
2013-12-07 23:00:00,12.0,7.0,-100.00,South,180,0.0,-999.0,79,-99.99,,,-99.99,0.000000,,2013-12-08 04:00:00,
2013-12-07 23:43:00,12.0,7.0,-100.00,South,180,0.0,-999.0,79,-99.99,,,-99.99,0.000000,,2013-12-08 04:43:00,
2013-12-07 23:53:00,12.0,7.0,-100.00,South,180,0.0,-999.0,79,-99.99,,,-99.99,0.000000,,2013-12-08 04:53:00,